createdAt,value
2018-08-13T00:00:44.842Z,24.30
2018-08-13T00:03:11.521Z,24.31
2018-08-13T00:05:38.161Z,24.22
2018-08-13T00:08:04.839Z,24.25
2018-08-13T00:10:31.474Z,24.23
2018-08-13T00:12:58.161Z,24.21
2018-08-13T00:15:24.822Z,24.22
2018-08-13T00:17:51.574Z,24.24
2018-08-13T00:20:18.207Z,24.24
2018-08-13T00:22:44.900Z,24.26
2018-08-13T00:25:11.537Z,24.20
2018-08-13T00:27:38.216Z,24.19
2018-08-13T00:30:04.822Z,24.16
2018-08-13T00:32:31.501Z,24.16
2018-08-13T00:34:58.130Z,24.13
2018-08-13T00:37:24.764Z,24.13
2018-08-13T00:39:51.409Z,24.14
2018-08-13T00:42:18.073Z,24.15
2018-08-13T00:44:44.765Z,24.09
2018-08-13T00:47:11.473Z,24.11
2018-08-13T00:49:38.153Z,24.08
2018-08-13T00:52:04.840Z,24.08
2018-08-13T00:54:31.526Z,24.09
2018-08-13T00:56:58.172Z,24.10
2018-08-13T00:59:24.816Z,24.04
2018-08-13T01:01:51.457Z,24.05
2018-08-13T01:04:18.133Z,24.03
2018-08-13T01:06:44.818Z,24.02
2018-08-13T01:09:11.449Z,24.03
2018-08-13T01:11:38.194Z,24.01
2018-08-13T01:14:04.842Z,24.01
2018-08-13T01:16:31.511Z,23.99
2018-08-13T01:18:58.110Z,24.01
2018-08-13T01:21:24.766Z,24.03
2018-08-13T01:23:51.395Z,23.98
2018-08-13T01:26:18.051Z,23.99
2018-08-13T01:28:44.709Z,23.99
2018-08-13T01:31:11.347Z,23.98
2018-08-13T01:33:37.988Z,23.98
2018-08-13T01:36:04.654Z,23.99
2018-08-13T01:38:31.276Z,23.96
2018-08-13T01:40:57.915Z,23.93
2018-08-13T01:43:24.548Z,23.90
2018-08-13T01:45:51.184Z,23.92
2018-08-13T01:48:17.839Z,23.92
2018-08-13T01:50:44.595Z,23.92
2018-08-13T01:53:11.232Z,23.90
2018-08-13T01:55:37.881Z,23.91
2018-08-13T01:58:04.508Z,23.89
2018-08-13T02:00:31.153Z,23.88
2018-08-13T02:02:57.796Z,23.93
2018-08-13T02:05:24.427Z,23.91
2018-08-13T02:07:51.061Z,23.88
2018-08-13T02:10:17.698Z,23.89
2018-08-13T02:12:44.348Z,23.86
2018-08-13T02:15:10.999Z,23.89
2018-08-13T02:17:37.621Z,23.87
2018-08-13T02:20:04.260Z,23.90
2018-08-13T02:22:30.900Z,23.87
2018-08-13T02:24:57.549Z,23.86
2018-08-13T02:27:24.182Z,23.83
2018-08-13T02:29:50.820Z,23.82
2018-08-13T02:32:17.462Z,23.80
2018-08-13T02:34:44.100Z,23.80
2018-08-13T02:37:10.735Z,23.81
2018-08-13T02:39:37.451Z,23.78
2018-08-13T02:42:04.110Z,23.77
2018-08-13T02:44:30.750Z,23.81
2018-08-13T02:49:24.029Z,23.78
2018-08-13T02:51:50.701Z,23.78
2018-08-13T02:54:17.327Z,23.76
2018-08-13T02:56:43.964Z,23.76
2018-08-13T02:59:10.603Z,23.77
2018-08-13T03:01:37.259Z,23.74
2018-08-13T03:04:03.896Z,23.74
2018-08-13T03:06:30.544Z,23.82
2018-08-13T03:08:57.183Z,23.81
2018-08-13T03:11:23.820Z,23.65
2018-08-13T03:13:50.464Z,23.60
2018-08-13T03:16:17.105Z,23.53
2018-08-13T03:18:43.749Z,23.47
2018-08-13T03:21:10.394Z,23.42
2018-08-13T03:23:37.019Z,23.42
2018-08-13T03:26:03.662Z,23.36
2018-08-13T03:28:30.344Z,23.45
2018-08-13T03:30:56.974Z,23.42
2018-08-13T03:33:23.606Z,23.37
2018-08-13T03:35:50.238Z,23.46
2018-08-13T03:38:16.881Z,23.45
2018-08-13T03:40:43.545Z,23.49
2018-08-13T03:43:10.141Z,23.38
2018-08-13T03:45:36.782Z,23.37
2018-08-13T03:48:03.419Z,23.44
2018-08-13T03:50:30.053Z,23.51
2018-08-13T03:52:56.700Z,23.45
2018-08-13T03:55:23.350Z,23.41
2018-08-13T03:57:49.982Z,23.49
2018-08-13T04:00:16.675Z,23.51
2018-08-13T04:02:43.364Z,23.55
2018-08-13T04:05:10.042Z,23.65
2018-08-13T04:07:36.688Z,23.75
2018-08-13T04:10:03.331Z,23.82
2018-08-13T04:12:29.973Z,23.86
2018-08-13T04:14:56.653Z,23.89
2018-08-13T04:17:23.255Z,23.91
2018-08-13T04:19:49.900Z,24.04
2018-08-13T04:22:16.538Z,24.05
2018-08-13T04:24:43.218Z,24.13
2018-08-13T04:27:09.825Z,24.13
2018-08-13T04:29:36.474Z,24.16
2018-08-13T04:32:03.097Z,24.18
2018-08-13T04:34:29.726Z,24.29
2018-08-13T04:36:56.373Z,24.30
2018-08-13T04:39:23.015Z,24.14
2018-08-13T04:41:49.660Z,24.08
2018-08-13T04:44:16.297Z,24.01
2018-08-13T04:46:42.933Z,24.08
2018-08-13T04:49:09.567Z,24.07
2018-08-13T04:51:36.199Z,24.13
2018-08-13T04:54:02.829Z,24.10
2018-08-13T04:56:29.477Z,24.15
2018-08-13T04:58:56.163Z,24.21
2018-08-13T05:01:22.749Z,24.26
2018-08-13T05:03:49.419Z,24.26
2018-08-13T05:06:16.054Z,24.38
2018-08-13T05:08:42.691Z,24.34
2018-08-13T05:11:09.331Z,24.33
2018-08-13T05:13:35.979Z,24.40
2018-08-13T05:16:02.627Z,24.43
2018-08-13T05:18:29.314Z,24.48
2018-08-13T05:20:55.957Z,24.63
2018-08-13T05:23:22.618Z,24.70
2018-08-13T05:25:49.272Z,24.75
2018-08-13T05:28:15.909Z,24.67
2018-08-13T05:30:42.551Z,24.71
2018-08-13T05:33:09.193Z,24.78
2018-08-13T05:35:35.832Z,24.82
2018-08-13T05:38:02.551Z,24.93
2018-08-13T05:40:29.163Z,24.90
2018-08-13T05:42:56.079Z,24.98
2018-08-13T05:45:22.743Z,24.96
2018-08-13T05:47:49.381Z,25.04
2018-08-13T05:50:16.028Z,25.06
2018-08-13T05:52:42.692Z,25.11
2018-08-13T05:55:09.351Z,25.16
2018-08-13T05:57:36.109Z,25.19
2018-08-13T06:00:02.807Z,25.09
2018-08-13T06:02:29.462Z,25.25
2018-08-13T06:04:56.108Z,25.33
2018-08-13T06:07:22.755Z,25.37
2018-08-13T06:09:49.395Z,25.38
2018-08-13T06:12:16.104Z,25.55
2018-08-13T06:14:42.738Z,25.56
2018-08-13T06:17:09.408Z,25.49
2018-08-13T06:19:36.079Z,25.68
2018-08-13T06:22:02.714Z,25.63
2018-08-13T06:24:29.366Z,25.60
2018-08-13T06:26:56.005Z,25.57
2018-08-13T06:29:22.699Z,25.49
2018-08-13T06:31:49.412Z,25.52
2018-08-13T06:34:16.018Z,25.61
2018-08-13T06:36:42.831Z,25.59
2018-08-13T06:39:09.667Z,25.52
2018-08-13T06:41:36.362Z,25.53
2018-08-13T06:44:03.009Z,25.48
2018-08-13T06:46:29.656Z,25.30
2018-08-13T06:48:56.364Z,25.48
2018-08-13T06:51:23.064Z,25.53
2018-08-13T06:53:49.778Z,25.64
2018-08-13T06:56:16.395Z,25.50
2018-08-13T06:58:43.028Z,25.52
2018-08-13T07:01:09.702Z,25.72
2018-08-13T07:03:36.358Z,25.63
2018-08-13T07:06:03.059Z,25.56
2018-08-13T07:08:29.707Z,25.58
2018-08-13T07:10:56.345Z,25.72
2018-08-13T07:13:22.994Z,25.67
2018-08-13T07:15:49.648Z,25.65
2018-08-13T07:18:16.284Z,25.63
2018-08-13T07:20:42.922Z,25.64
2018-08-13T07:23:09.618Z,25.66
2018-08-13T07:25:36.257Z,25.73
2018-08-13T07:28:03.939Z,25.85
2018-08-13T07:30:30.542Z,25.81
2018-08-13T07:32:57.203Z,25.73
2018-08-13T07:35:23.853Z,25.72
2018-08-13T07:37:50.490Z,25.74
2018-08-13T07:40:17.155Z,25.69
2018-08-13T07:42:43.801Z,25.58
2018-08-13T07:45:10.438Z,25.48
2018-08-13T07:47:37.100Z,25.43
2018-08-13T07:50:03.808Z,25.38
2018-08-13T07:52:30.568Z,25.44
2018-08-13T07:54:58.460Z,25.34
2018-08-13T07:57:25.148Z,25.24
2018-08-13T07:59:51.794Z,25.35
2018-08-13T08:02:18.443Z,25.36
2018-08-13T08:04:45.144Z,25.34
2018-08-13T08:07:11.787Z,25.44
2018-08-13T08:09:38.476Z,25.36
2018-08-13T08:12:05.122Z,25.20
2018-08-13T08:14:31.792Z,25.27
2018-08-13T08:16:58.399Z,25.46
2018-08-13T08:19:25.080Z,25.35
2018-08-13T08:21:51.747Z,25.39
2018-08-13T08:24:18.418Z,25.42
2018-08-13T08:26:45.051Z,25.28
2018-08-13T08:29:11.742Z,25.18
2018-08-13T08:31:38.344Z,25.18
2018-08-13T08:34:05.000Z,25.13
2018-08-13T08:36:31.707Z,25.12
2018-08-13T08:38:58.374Z,25.14
2018-08-13T08:41:25.065Z,25.16
2018-08-13T08:43:51.720Z,25.20
2018-08-13T08:46:18.356Z,25.33
2018-08-13T08:48:45.009Z,25.40
2018-08-13T08:51:11.644Z,25.37
2018-08-13T08:53:38.336Z,25.44
2018-08-13T08:56:04.950Z,25.44
2018-08-13T08:58:31.597Z,25.43
2018-08-13T09:00:58.271Z,25.38
2018-08-13T09:03:24.920Z,25.20
2018-08-13T09:05:51.616Z,25.01
2018-08-13T09:08:18.339Z,25.25
2018-08-13T09:10:45.018Z,25.37
2018-08-13T09:13:11.646Z,25.42
2018-08-13T09:15:38.281Z,25.31
2018-08-13T09:18:04.976Z,25.61
2018-08-13T09:20:31.640Z,25.62
2018-08-13T09:22:58.287Z,25.60
2018-08-13T09:25:25.016Z,25.66
2018-08-13T09:27:51.601Z,25.61
2018-08-13T09:30:18.241Z,25.52
2018-08-13T09:32:44.891Z,25.62
2018-08-13T09:35:11.660Z,25.58
2018-08-13T09:37:38.332Z,25.55
2018-08-13T09:40:04.982Z,25.35
2018-08-13T09:42:31.756Z,25.28
2018-08-13T09:44:58.424Z,25.06
2018-08-13T09:47:25.064Z,25.25
2018-08-13T09:49:51.704Z,25.49
2018-08-13T09:52:18.366Z,25.43
2018-08-13T09:54:45.000Z,25.48
2018-08-13T09:57:11.639Z,25.56
2018-08-13T09:59:40.231Z,25.78
2018-08-13T10:02:06.833Z,25.81
2018-08-13T10:04:33.522Z,25.60
2018-08-13T10:07:00.189Z,25.34
2018-08-13T10:09:26.852Z,25.17
2018-08-13T10:11:53.528Z,25.03
2018-08-13T10:14:20.188Z,25.00
2018-08-13T10:16:46.900Z,25.14
2018-08-13T10:19:13.476Z,25.25
2018-08-13T10:21:40.135Z,25.33
2018-08-13T10:24:06.777Z,25.42
2018-08-13T10:26:33.437Z,25.46
2018-08-13T10:29:00.087Z,25.47
2018-08-13T10:31:26.735Z,25.58
2018-08-13T10:33:53.379Z,25.59
2018-08-13T10:36:20.025Z,25.35
2018-08-13T10:38:46.716Z,25.24
2018-08-13T10:41:13.320Z,25.17
2018-08-13T10:43:40.003Z,25.13
2018-08-13T10:46:06.643Z,25.37
2018-08-13T10:48:33.369Z,25.53
2018-08-13T10:51:00.013Z,25.56
2018-08-13T10:53:26.682Z,25.55
2018-08-13T10:55:53.372Z,25.40
2018-08-13T10:58:19.977Z,25.36
2018-08-13T11:00:46.629Z,25.24
2018-08-13T11:03:13.273Z,25.23
2018-08-13T11:05:39.895Z,25.34
2018-08-13T11:08:06.542Z,25.21
2018-08-13T11:10:33.294Z,25.15
2018-08-13T11:13:03.376Z,25.20
2018-08-13T11:15:30.022Z,25.20
2018-08-13T11:17:56.676Z,25.29
2018-08-13T11:20:23.303Z,25.33
2018-08-13T11:22:50.064Z,25.23
2018-08-13T11:25:16.740Z,25.17
2018-08-13T11:27:43.370Z,25.26
2018-08-13T11:30:10.014Z,25.16
2018-08-13T11:32:36.667Z,25.20
2018-08-13T11:35:03.327Z,25.23
2018-08-13T11:37:30.035Z,25.16
2018-08-13T11:39:56.646Z,25.11
2018-08-13T11:42:23.337Z,25.15
2018-08-13T11:44:51.133Z,25.13
2018-08-13T11:47:17.849Z,25.25
2018-08-13T11:49:44.508Z,25.32
2018-08-13T11:52:11.175Z,25.31
2018-08-13T11:54:42.347Z,25.39
2018-08-13T11:57:09.036Z,25.24
2018-08-13T11:59:35.680Z,25.30
2018-08-13T12:02:02.348Z,25.21
2018-08-13T12:04:29.009Z,25.30
2018-08-13T12:06:55.661Z,25.31
2018-08-13T12:09:22.324Z,25.21
2018-08-13T12:11:49.008Z,25.12
2018-08-13T12:14:15.646Z,25.13
2018-08-13T12:16:42.342Z,25.15
2018-08-13T12:19:08.986Z,25.14
2018-08-13T12:21:35.680Z,25.24
2018-08-13T12:24:02.336Z,25.23
2018-08-13T12:26:29.035Z,25.45
2018-08-13T12:28:55.665Z,25.52
2018-08-13T12:31:22.803Z,25.56
2018-08-13T12:33:49.624Z,25.74
2018-08-13T12:36:16.463Z,25.79
2018-08-13T12:38:43.105Z,25.49
2018-08-13T12:43:36.481Z,25.40
2018-08-13T12:46:03.128Z,25.25
2018-08-13T12:48:29.805Z,25.12
2018-08-13T12:50:56.468Z,25.15
2018-08-13T12:53:23.110Z,25.14
2018-08-13T12:55:49.794Z,25.15
2018-08-13T12:58:16.443Z,25.11
2018-08-13T13:00:43.127Z,25.09
2018-08-13T13:03:09.776Z,25.08
2018-08-13T13:05:36.519Z,25.02
2018-08-13T13:08:03.202Z,25.10
2018-08-13T13:10:30.152Z,25.03
2018-08-13T13:12:56.834Z,25.00
2018-08-13T13:15:23.531Z,25.05
2018-08-13T13:17:50.168Z,25.12
2018-08-13T13:20:16.812Z,25.06
2018-08-13T13:22:43.511Z,24.99
2018-08-13T13:25:10.155Z,25.04
2018-08-13T13:27:36.831Z,25.14
2018-08-13T13:30:03.469Z,25.13
2018-08-13T13:32:30.128Z,25.09
2018-08-13T13:34:56.766Z,25.04
2018-08-13T13:37:23.415Z,25.21
2018-08-13T13:39:50.054Z,25.01
2018-08-13T13:42:16.782Z,25.03
2018-08-13T13:44:43.463Z,25.09
2018-08-13T13:47:10.159Z,25.23
2018-08-13T13:49:36.803Z,25.38
2018-08-13T13:52:03.454Z,25.53
2018-08-13T13:54:30.105Z,25.56
2018-08-13T13:56:56.740Z,25.70
2018-08-13T13:59:23.393Z,25.69
2018-08-13T14:01:50.050Z,25.76
2018-08-13T14:04:16.711Z,25.68
2018-08-13T14:06:43.353Z,25.53
2018-08-13T14:09:10.030Z,25.43
2018-08-13T14:11:36.723Z,25.34
2018-08-13T14:14:03.370Z,25.16
2018-08-13T14:16:30.012Z,25.23
2018-08-13T14:18:56.909Z,25.41
2018-08-13T14:21:23.536Z,25.58
2018-08-13T14:23:50.183Z,25.70
2018-08-13T14:26:17.061Z,25.77
2018-08-13T14:28:43.704Z,25.80
2018-08-13T14:31:10.420Z,25.67
2018-08-13T14:33:37.027Z,25.45
2018-08-13T14:36:03.712Z,25.42
2018-08-13T14:38:30.365Z,25.37
2018-08-13T14:40:57.050Z,25.29
2018-08-13T14:43:23.737Z,25.34
2018-08-13T14:45:50.381Z,25.50
2018-08-13T14:48:17.016Z,25.63
2018-08-13T14:50:43.671Z,25.81
2018-08-13T14:53:10.357Z,25.81
2018-08-13T14:55:37.031Z,25.78
2018-08-13T14:58:03.677Z,25.65
2018-08-13T15:00:30.417Z,25.63
2018-08-13T15:02:57.083Z,25.45
2018-08-13T15:05:24.127Z,25.40
2018-08-13T15:07:50.812Z,25.30
2018-08-13T15:10:17.442Z,25.45
2018-08-13T15:12:44.133Z,25.59
2018-08-13T15:15:10.758Z,25.60
2018-08-13T15:17:37.431Z,25.58
2018-08-13T15:20:04.140Z,25.60
2018-08-13T15:22:30.791Z,25.64
2018-08-13T15:24:57.439Z,25.63
2018-08-13T15:27:24.326Z,25.63
2018-08-13T15:29:50.761Z,25.69
2018-08-13T15:32:17.486Z,25.66
2018-08-13T15:34:44.101Z,25.63
2018-08-13T15:37:10.732Z,25.70
2018-08-13T15:39:37.371Z,25.72
2018-08-13T15:42:04.052Z,25.71
2018-08-13T15:44:30.703Z,25.79
2018-08-13T15:46:57.473Z,25.78
2018-08-13T15:49:24.122Z,25.68
2018-08-13T15:51:50.761Z,25.71
2018-08-13T15:54:17.470Z,25.64
2018-08-13T15:56:44.114Z,25.66
2018-08-13T15:59:10.763Z,25.62
2018-08-13T16:01:37.501Z,25.61
2018-08-13T16:04:04.159Z,25.62
2018-08-13T16:06:30.859Z,25.62
2018-08-13T16:08:57.498Z,25.59
2018-08-13T16:11:24.147Z,25.63
2018-08-13T16:13:50.787Z,25.64
2018-08-13T16:16:17.459Z,25.59
2018-08-13T16:18:44.104Z,25.62
2018-08-13T16:21:10.763Z,25.55
2018-08-13T16:23:37.410Z,25.58
2018-08-13T16:26:04.096Z,25.60
2018-08-13T16:28:30.780Z,25.63
2018-08-13T16:30:57.410Z,25.58
2018-08-13T16:33:24.100Z,25.58
2018-08-13T16:35:50.724Z,25.52
2018-08-13T16:38:17.410Z,25.54
2018-08-13T16:40:44.046Z,25.55
2018-08-13T16:43:10.677Z,25.51
2018-08-13T16:45:37.353Z,25.51
2018-08-13T16:48:04.016Z,25.55
2018-08-13T16:50:30.641Z,25.51
2018-08-13T16:52:57.328Z,25.48
2018-08-13T16:55:23.956Z,25.49
2018-08-13T16:57:53.635Z,25.43
2018-08-13T17:00:20.281Z,25.38
2018-08-13T17:02:46.977Z,25.25
2018-08-13T17:05:13.629Z,24.99
2018-08-13T17:07:40.339Z,24.72
2018-08-13T17:10:07.011Z,24.94
2018-08-13T17:12:33.646Z,24.71
2018-08-13T17:15:00.309Z,24.88
2018-08-13T17:17:26.946Z,24.85
2018-08-13T17:19:53.579Z,24.90
2018-08-13T17:22:20.271Z,24.90
2018-08-13T17:24:46.924Z,24.86
2018-08-13T17:27:13.581Z,24.82
2018-08-13T17:29:40.215Z,24.78
2018-08-13T17:32:06.905Z,24.84
2018-08-13T17:34:33.532Z,24.80
2018-08-13T17:37:00.213Z,24.83
2018-08-13T17:39:26.859Z,24.79
2018-08-13T17:41:53.500Z,24.72
2018-08-13T17:44:20.171Z,24.69
2018-08-13T17:46:46.812Z,24.73
2018-08-13T17:49:13.492Z,24.66
2018-08-13T17:51:40.119Z,24.67
2018-08-13T17:54:06.799Z,24.63
2018-08-13T17:56:33.429Z,24.64
2018-08-13T17:59:00.063Z,24.57
2018-08-13T18:01:26.704Z,24.55
2018-08-13T18:03:53.337Z,24.60
2018-08-13T18:06:20.016Z,24.52
2018-08-13T18:08:46.693Z,24.52
2018-08-13T18:11:13.367Z,24.47
2018-08-13T18:13:40.038Z,24.44
2018-08-13T18:16:09.720Z,24.48
2018-08-13T18:18:36.409Z,24.44
2018-08-13T18:21:03.133Z,24.44
2018-08-13T18:23:29.756Z,24.43
2018-08-13T18:25:56.430Z,24.37
2018-08-13T18:28:23.068Z,24.36
2018-08-13T18:30:49.703Z,24.32
2018-08-13T18:33:16.380Z,24.31
2018-08-13T18:35:43.016Z,24.32
2018-08-13T18:38:09.659Z,24.27
2018-08-13T18:40:36.301Z,24.28
2018-08-13T18:43:02.988Z,24.27
2018-08-13T18:45:29.620Z,24.21
2018-08-13T18:47:56.305Z,24.25
2018-08-13T18:50:22.939Z,24.22
2018-08-13T18:52:49.630Z,24.17
2018-08-13T18:55:16.314Z,24.13
2018-08-13T18:57:43.001Z,24.14
2018-08-13T19:00:09.635Z,24.34
2018-08-13T19:02:36.274Z,24.44
2018-08-13T19:05:02.913Z,24.56
2018-08-13T19:07:29.550Z,24.65
2018-08-13T19:09:56.483Z,24.56
2018-08-13T19:12:23.118Z,24.34
2018-08-13T19:14:49.790Z,24.22
2018-08-13T19:17:16.429Z,24.24
2018-08-13T19:19:43.142Z,24.17
2018-08-13T19:22:09.763Z,24.12
2018-08-13T19:24:36.397Z,24.12
2018-08-13T19:27:03.041Z,24.08
2018-08-13T19:29:29.678Z,24.04
2018-08-13T19:31:56.314Z,24.00
2018-08-13T19:34:22.979Z,23.99
2018-08-13T19:36:49.661Z,23.99
2018-08-13T19:39:16.298Z,23.97
2018-08-13T19:41:42.934Z,23.95
2018-08-13T19:44:09.570Z,23.90
2018-08-13T19:46:36.212Z,23.94
2018-08-13T19:49:02.892Z,23.89
2018-08-13T19:51:29.573Z,24.01
2018-08-13T19:53:56.208Z,24.13
2018-08-13T19:56:22.841Z,24.24
2018-08-13T19:58:49.479Z,24.37
2018-08-13T20:01:16.109Z,24.41
2018-08-13T20:03:42.797Z,24.18
2018-08-13T20:06:09.473Z,23.99
2018-08-13T20:08:36.108Z,23.94
2018-08-13T20:11:02.745Z,23.86
2018-08-13T20:13:29.471Z,23.86
2018-08-13T20:15:56.066Z,23.82
2018-08-13T20:18:22.760Z,23.74
2018-08-13T20:20:49.402Z,23.76
2018-08-13T20:23:16.082Z,23.79
2018-08-13T20:25:42.714Z,23.78
2018-08-13T20:28:09.343Z,23.70
2018-08-13T20:30:35.990Z,23.69
2018-08-13T20:33:02.677Z,23.66
2018-08-13T20:35:29.381Z,23.59
2018-08-13T20:37:56.017Z,23.64
2018-08-13T20:40:22.663Z,23.60
2018-08-13T20:42:49.302Z,23.58
2018-08-13T20:45:15.995Z,23.82
2018-08-13T20:47:42.631Z,23.85
2018-08-13T20:50:09.316Z,23.98
2018-08-13T20:52:35.950Z,24.04
2018-08-13T20:55:02.583Z,24.00
2018-08-13T20:57:29.232Z,23.77
2018-08-13T20:59:55.921Z,23.63
2018-08-13T21:02:22.561Z,23.54
2018-08-13T21:04:49.269Z,23.56
2018-08-13T21:07:15.881Z,23.48
2018-08-13T21:09:42.578Z,23.45
2018-08-13T21:12:09.205Z,23.45
2018-08-13T21:14:36.017Z,23.43
2018-08-13T21:17:02.642Z,23.40
2018-08-13T21:19:29.272Z,23.37
2018-08-13T21:21:55.920Z,23.31
2018-08-13T21:24:22.598Z,23.34
2018-08-13T21:26:49.280Z,23.35
2018-08-13T21:29:15.918Z,23.27
2018-08-13T21:31:42.606Z,23.40
2018-08-13T21:34:12.516Z,23.53
2018-08-13T21:36:39.205Z,23.64
2018-08-13T21:39:05.847Z,23.73
2018-08-13T21:41:32.480Z,23.73
2018-08-13T21:43:59.312Z,23.90
2018-08-13T21:46:25.950Z,23.94
2018-08-13T21:48:52.596Z,23.99
2018-08-13T21:51:19.277Z,24.03
2018-08-13T21:53:45.923Z,24.02
2018-08-13T21:56:12.603Z,24.09
2018-08-13T21:58:39.285Z,24.12
2018-08-13T22:01:05.962Z,24.12
2018-08-13T22:03:32.596Z,24.17
2018-08-13T22:05:59.241Z,24.21
2018-08-13T22:08:25.884Z,24.17
2018-08-13T22:10:52.509Z,24.26
2018-08-13T22:13:19.149Z,24.21
2018-08-13T22:15:45.785Z,24.22
2018-08-13T22:18:12.426Z,24.24
2018-08-13T22:20:39.068Z,24.33
2018-08-13T22:23:05.720Z,24.30
2018-08-13T22:25:32.361Z,24.31
2018-08-13T22:27:59.002Z,24.29
2018-08-13T22:30:25.636Z,24.30
2018-08-13T22:32:52.269Z,24.32
2018-08-13T22:35:18.911Z,24.36
2018-08-13T22:37:45.546Z,24.28
2018-08-13T22:40:12.182Z,24.30
2018-08-13T22:42:38.808Z,24.40
2018-08-13T22:45:05.456Z,24.32
2018-08-13T22:47:32.094Z,24.31
2018-08-13T22:49:58.734Z,24.34
2018-08-13T22:52:25.426Z,24.35
2018-08-13T22:54:52.017Z,24.37
2018-08-13T22:57:18.658Z,24.33
2018-08-13T22:59:45.305Z,24.36
2018-08-13T23:02:11.948Z,24.37
2018-08-13T23:04:38.630Z,24.36
2018-08-13T23:07:05.266Z,24.37
2018-08-13T23:09:31.904Z,24.34
2018-08-13T23:11:58.552Z,24.35
2018-08-13T23:14:25.180Z,24.33
2018-08-13T23:16:51.830Z,24.35
2018-08-13T23:19:18.510Z,24.38
2018-08-13T23:21:45.154Z,24.36
2018-08-13T23:24:11.792Z,24.32
2018-08-13T23:26:38.429Z,24.34
2018-08-13T23:29:05.081Z,24.35
2018-08-13T23:31:31.727Z,24.32
2018-08-13T23:33:58.365Z,24.37
2018-08-13T23:36:25.002Z,24.36
2018-08-13T23:38:51.639Z,24.38
2018-08-13T23:41:18.277Z,24.38
2018-08-13T23:43:44.915Z,24.30
2018-08-13T23:46:11.553Z,24.32
2018-08-13T23:48:38.207Z,24.36
2018-08-13T23:51:04.891Z,24.34
2018-08-13T23:53:31.498Z,24.36
2018-08-13T23:55:58.137Z,24.36
2018-08-13T23:58:24.770Z,24.31
